sensor_id;sensor_type;location;lat;lon;timestamp;pressure;altitude;pressure_sealevel;temperature;humidity
53619;BME280;39505;53.040;18.488;2022-11-24T00:00:00;100726.84;;;0.88;100.00
53619;BME280;39505;53.040;18.488;2022-11-24T00:00:14;100729.53;;;0.86;100.00
53619;BME280;39505;53.040;18.488;2022-11-24T00:00:35;100733.91;;;0.87;100.00
53619;BME280;39505;53.040;18.488;2022-11-24T00:01:09;100729.53;;;0.86;100.00
53619;BME280;39505;53.040;18.488;2022-11-24T00:01:25;100726.91;;;0.86;100.00
53619;BME280;39505;53.040;18.488;2022-11-24T00:01:38;100732.97;;;0.88;100.00
53619;BME280;39505;53.040;18.488;2022-11-24T00:01:51;100732.06;;;0.89;100.00
53619;BME280;39505;53.040;18.488;2022-11-24T00:02:04;100727.69;;;0.88;100.00
53619;BME280;39505;53.040;18.488;2022-11-24T00:02:18;100726.78;;;0.89;100.00
53619;BME280;39505;53.040;18.488;2022-11-24T00:02:30;100731.13;;;0.90;100.00
53619;BME280;39505;53.040;18.488;2022-11-24T00:02:44;100735.44;;;0.91;100.00
53619;BME280;39505;53.040;18.488;2022-11-24T00:02:56;100733.75;;;0.90;100.00
53619;BME280;39505;53.040;18.488;2022-11-24T00:03:09;100734.53;;;0.92;100.00
53619;BME280;39505;53.040;18.488;2022-11-24T00:03:22;100738.03;;;0.93;100.00
53619;BME280;39505;53.040;18.488;2022-11-24T00:03:36;100728.31;;;0.93;100.00
53619;BME280;39505;53.040;18.488;2022-11-24T00:03:54;100733.59;;;0.93;100.00
53619;BME280;39505;53.040;18.488;2022-11-24T00:04:10;100735.31;;;0.94;100.00
53619;BME280;39505;53.040;18.488;2022-11-24T00:04:23;100730.88;;;0.95;100.00
53619;BME280;39505;53.040;18.488;2022-11-24T00:04:36;100731.75;;;0.95;100.00
53619;BME280;39505;53.040;18.488;2022-11-24T00:04:49;100736.16;;;0.95;100.00
53619;BME280;39505;53.040;18.488;2022-11-24T00:05:01;100739.59;;;0.97;100.00
53619;BME280;39505;53.040;18.488;2022-11-24T00:05:16;100735.16;;;0.97;100.00
53619;BME280;39505;53.040;18.488;2022-11-24T00:05:28;100735.16;;;0.97;100.00
53619;BME280;39505;53.040;18.488;2022-11-24T00:05:41;100740.44;;;0.97;100.00
53619;BME280;39505;53.040;18.488;2022-11-24T00:05:54;100733.47;;;0.96;100.00
53619;BME280;39505;53.040;18.488;2022-11-24T00:06:08;100729.03;;;0.97;100.00
53619;BME280;39505;53.040;18.488;2022-11-24T00:06:22;100736.91;;;0.98;100.00
53619;BME280;39505;53.040;18.488;2022-11-24T00:06:36;100732.53;;;0.97;100.00
53619;BME280;39505;53.040;18.488;2022-11-24T00:06:49;100733.47;;;0.96;100.00
53619;BME280;39505;53.040;18.488;2022-11-24T00:07:02;100738.75;;;0.96;100.00
53619;BME280;39505;53.040;18.488;2022-11-24T00:07:15;100732.63;;;0.96;100.00
53619;BME280;39505;53.040;18.488;2022-11-24T00:07:28;100736.16;;;0.95;100.00
53619;BME280;39505;53.040;18.488;2022-11-24T00:07:41;100733.59;;;0.93;100.00
53619;BME280;39505;53.040;18.488;2022-11-24T00:07:54;100739.81;;;0.92;100.00
53619;BME280;39505;53.040;18.488;2022-11-24T00:08:07;100737.19;;;0.92;100.00
53619;BME280;39505;53.040;18.488;2022-11-24T00:08:20;100735.44;;;0.91;100.00
53619;BME280;39505;53.040;18.488;2022-11-24T00:08:35;100734.59;;;0.91;100.00
53619;BME280;39505;53.040;18.488;2022-11-24T00:08:48;100737.25;;;0.91;100.00
53619;BME280;39505;53.040;18.488;2022-11-24T00:09:03;100727.53;;;0.91;100.00
53619;BME280;39505;53.040;18.488;2022-11-24T00:09:16;100735.44;;;0.91;100.00
53619;BME280;39505;53.040;18.488;2022-11-24T00:09:29;100730.25;;;0.90;100.00
53619;BME280;39505;53.040;18.488;2022-11-24T00:09:42;100729.31;;;0.91;100.00
53619;BME280;39505;53.040;18.488;2022-11-24T00:09:56;100729.31;;;0.91;100.00
53619;BME280;39505;53.040;18.488;2022-11-24T00:10:09;100733.75;;;0.90;100.00
53619;BME280;39505;53.040;18.488;2022-11-24T00:10:22;100729.31;;;0.91;100.00
53619;BME280;39505;53.040;18.488;2022-11-24T00:10:36;100733.69;;;0.92;100.00
53619;BME280;39505;53.040;18.488;2022-11-24T00:10:49;100735.44;;;0.91;100.00
53619;BME280;39505;53.040;18.488;2022-11-24T00:11:03;100730.16;;;0.91;100.00
53619;BME280;39505;53.040;18.488;2022-11-24T00:11:19;100730.16;;;0.91;100.00
53619;BME280;39505;53.040;18.488;2022-11-24T00:11:34;100731.91;;;0.92;100.00
53619;BME280;39505;53.040;18.488;2022-11-24T00:11:48;100726.63;;;0.92;100.00
53619;BME280;39505;53.040;18.488;2022-11-24T00:12:01;100727.47;;;0.93;100.00
53619;BME280;39505;53.040;18.488;2022-11-24T00:12:14;100723.97;;;0.92;100.00
53619;BME280;39505;53.040;18.488;2022-11-24T00:12:27;100723.13;;;0.92;100.00
53619;BME280;39505;53.040;18.488;2022-11-24T00:12:40;100731.91;;;0.92;100.00
53619;BME280;39505;53.040;18.488;2022-11-24T00:12:53;100732.75;;;0.93;100.00
53619;BME280;39505;53.040;18.488;2022-11-24T00:13:06;100727.47;;;0.93;100.00
53619;BME280;39505;53.040;18.488;2022-11-24T00:13:19;100725.66;;;0.93;100.00
53619;BME280;39505;53.040;18.488;2022-11-24T00:13:33;100729.19;;;0.94;100.00
53619;BME280;39505;53.040;18.488;2022-11-24T00:13:46;100733.59;;;0.93;100.00
53619;BME280;39505;53.040;18.488;2022-11-24T00:13:59;100733.53;;;0.95;100.00
53619;BME280;39505;53.040;18.488;2022-11-24T00:14:13;100733.47;;;0.96;100.00
53619;BME280;39505;53.040;18.488;2022-11-24T00:14:26;100735.16;;;0.97;100.00
53619;BME280;39505;53.040;18.488;2022-11-24T00:14:40;100728.19;;;0.96;100.00
53619;BME280;39505;53.040;18.488;2022-11-24T00:14:53;100729.88;;;0.97;100.00
53619;BME280;39505;53.040;18.488;2022-11-24T00:15:06;100729.03;;;0.97;100.00
53619;BME280;39505;53.040;18.488;2022-11-24T00:15:20;100731.63;;;0.98;100.00
53619;BME280;39505;53.040;18.488;2022-11-24T00:15:33;100722.91;;;0.96;100.00
53619;BME280;39505;53.040;18.488;2022-11-24T00:15:45;100725.56;;;0.96;100.00
53619;BME280;39505;53.040;18.488;2022-11-24T00:16:09;100729.03;;;0.97;100.00
53619;BME280;39505;53.040;18.488;2022-11-24T00:16:24;100722.91;;;0.96;100.00
53619;BME280;39505;53.040;18.488;2022-11-24T00:16:39;100727.25;;;0.97;100.00
53619;BME280;39505;53.040;18.488;2022-11-24T00:16:52;100724.59;;;0.97;100.00
53619;BME280;39505;53.040;18.488;2022-11-24T00:17:05;100730.78;;;0.98;100.00
53619;BME280;39505;53.040;18.488;2022-11-24T00:17:18;100722.84;;;0.98;100.00
53619;BME280;39505;53.040;18.488;2022-11-24T00:17:31;100725.50;;;0.98;100.00
53619;BME280;39505;53.040;18.488;2022-11-24T00:17:44;100721.13;;;0.97;100.00
53619;BME280;39505;53.040;18.488;2022-11-24T00:17:57;100725.50;;;0.98;100.00
53619;BME280;39505;53.040;18.488;2022-11-24T00:18:09;100723.75;;;0.97;100.00
53619;BME280;39505;53.040;18.488;2022-11-24T00:18:23;100721.97;;;0.97;100.00
53619;BME280;39505;53.040;18.488;2022-11-24T00:18:37;100723.75;;;0.97;100.00
53619;BME280;39505;53.040;18.488;2022-11-24T00:18:51;100729.03;;;0.97;100.00
53619;BME280;39505;53.040;18.488;2022-11-24T00:19:06;100733.47;;;0.96;100.00
53619;BME280;39505;53.040;18.488;2022-11-24T00:19:20;100732.53;;;0.97;100.00
53619;BME280;39505;53.040;18.488;2022-11-24T00:19:34;100728.19;;;0.96;100.00
53619;BME280;39505;53.040;18.488;2022-11-24T00:19:47;100721.19;;;0.95;100.00
53619;BME280;39505;53.040;18.488;2022-11-24T00:20:00;100725.63;;;0.95;100.00
53619;BME280;39505;53.040;18.488;2022-11-24T00:20:13;100732.63;;;0.96;100.00
53619;BME280;39505;53.040;18.488;2022-11-24T00:20:26;100732.63;;;0.96;100.00
53619;BME280;39505;53.040;18.488;2022-11-24T00:20:39;100722.97;;;0.95;100.00
53619;BME280;39505;53.040;18.488;2022-11-24T00:20:52;100737.03;;;0.95;100.00
53619;BME280;39505;53.040;18.488;2022-11-24T00:21:05;100737.03;;;0.95;100.00
53619;BME280;39505;53.040;18.488;2022-11-24T00:21:19;100731.75;;;0.95;100.00
53619;BME280;39505;53.040;18.488;2022-11-24T00:21:35;100737.03;;;0.95;100.00
53619;BME280;39505;53.040;18.488;2022-11-24T00:21:48;100735.16;;;0.97;100.00
53619;BME280;39505;53.040;18.488;2022-11-24T00:22:01;100741.31;;;0.98;100.00
53619;BME280;39505;53.040;18.488;2022-11-24T00:22:14;100731.75;;;0.95;100.00
53619;BME280;39505;53.040;18.488;2022-11-24T00:22:26;100737.91;;;0.96;100.00
53619;BME280;39505;53.040;18.488;2022-11-24T00:22:39;100737.03;;;0.95;100.00
53619;BME280;39505;53.040;18.488;2022-11-24T00:22:53;100737.03;;;0.95;100.00
53619;BME280;39505;53.040;18.488;2022-11-24T00:23:07;100737.03;;;0.95;100.00
53619;BME280;39505;53.040;18.488;2022-11-24T00:23:20;100744.16;;;0.93;100.00
53619;BME280;39505;53.040;18.488;2022-11-24T00:23:33;100738.88;;;0.93;100.00
53619;BME280;39505;53.040;18.488;2022-11-24T00:23:47;100731.91;;;0.92;100.00
53619;BME280;39505;53.040;18.488;2022-11-24T00:24:00;100742.47;;;0.92;100.00
53619;BME280;39505;53.040;18.488;2022-11-24T00:24:13;100741.59;;;0.92;100.00
53619;BME280;39505;53.040;18.488;2022-11-24T00:24:27;100745.09;;;0.92;100.00
53619;BME280;39505;53.040;18.488;2022-11-24T00:24:40;100737.19;;;0.92;100.00
53619;BME280;39505;53.040;18.488;2022-11-24T00:24:53;100741.59;;;0.92;100.00
53619;BME280;39505;53.040;18.488;2022-11-24T00:25:06;100737.19;;;0.92;100.00
53619;BME280;39505;53.040;18.488;2022-11-24T00:25:19;100737.19;;;0.92;100.00
53619;BME280;39505;53.040;18.488;2022-11-24T00:25:32;100739.88;;;0.91;100.00
53619;BME280;39505;53.040;18.488;2022-11-24T00:25:46;100744.31;;;0.90;100.00
53619;BME280;39505;53.040;18.488;2022-11-24T00:26:04;100739.03;;;0.90;100.00
53619;BME280;39505;53.040;18.488;2022-11-24T00:26:19;100737.34;;;0.89;100.00
53619;BME280;39505;53.040;18.488;2022-11-24T00:26:34;100744.31;;;0.90;100.00
53619;BME280;39505;53.040;18.488;2022-11-24T00:26:48;100739.97;;;0.89;100.00
53619;BME280;39505;53.040;18.488;2022-11-24T00:27:02;100739.03;;;0.90;100.00
53619;BME280;39505;53.040;18.488;2022-11-24T00:27:15;100744.31;;;0.90;100.00
53619;BME280;39505;53.040;18.488;2022-11-24T00:27:28;100752.22;;;0.90;100.00
53619;BME280;39505;53.040;18.488;2022-11-24T00:27:41;100745.16;;;0.91;100.00
53619;BME280;39505;53.040;18.488;2022-11-24T00:27:54;100743.38;;;0.91;100.00
53619;BME280;39505;53.040;18.488;2022-11-24T00:28:07;100740.72;;;0.91;100.00
53619;BME280;39505;53.040;18.488;2022-11-24T00:28:19;100740.66;;;0.93;100.00
53619;BME280;39505;53.040;18.488;2022-11-24T00:28:33;100742.47;;;0.92;100.00
53619;BME280;39505;53.040;18.488;2022-11-24T00:28:47;100742.47;;;0.92;100.00
53619;BME280;39505;53.040;18.488;2022-11-24T00:29:03;100744.16;;;0.93;100.00
53619;BME280;39505;53.040;18.488;2022-11-24T00:29:16;100738.03;;;0.93;100.00
53619;BME280;39505;53.040;18.488;2022-11-24T00:29:29;100741.44;;;0.95;100.00
53619;BME280;39505;53.040;18.488;2022-11-24T00:29:42;100744.94;;;0.95;100.00
53619;BME280;39505;53.040;18.488;2022-11-24T00:29:55;100744.03;;;0.96;100.00
53619;BME280;39505;53.040;18.488;2022-11-24T00:30:09;100739.75;;;0.94;100.00
53619;BME280;39505;53.040;18.488;2022-11-24T00:30:24;100742.31;;;0.95;100.00
53619;BME280;39505;53.040;18.488;2022-11-24T00:30:37;100739.66;;;0.95;100.00
53619;BME280;39505;53.040;18.488;2022-11-24T00:30:49;100744.03;;;0.96;100.00
53619;BME280;39505;53.040;18.488;2022-11-24T00:31:04;100741.38;;;0.96;100.00
53619;BME280;39505;53.040;18.488;2022-11-24T00:31:21;100741.38;;;0.96;100.00
53619;BME280;39505;53.040;18.488;2022-11-24T00:31:36;100737.03;;;0.95;100.00
53619;BME280;39505;53.040;18.488;2022-11-24T00:31:49;100749.31;;;0.96;100.00
53619;BME280;39505;53.040;18.488;2022-11-24T00:32:03;100749.31;;;0.96;100.00
53619;BME280;39505;53.040;18.488;2022-11-24T00:32:17;100739.66;;;0.95;100.00
53619;BME280;39505;53.040;18.488;2022-11-24T00:32:30;100747.50;;;0.97;100.00
53619;BME280;39505;53.040;18.488;2022-11-24T00:32:43;100744.94;;;0.95;100.00
53619;BME280;39505;53.040;18.488;2022-11-24T00:32:56;100744.09;;;0.95;100.00
53619;BME280;39505;53.040;18.488;2022-11-24T00:33:09;100745.88;;;0.94;100.00
53619;BME280;39505;53.040;18.488;2022-11-24T00:33:21;100736.22;;;0.93;100.00
53619;BME280;39505;53.040;18.488;2022-11-24T00:33:34;100744.16;;;0.93;100.00
53619;BME280;39505;53.040;18.488;2022-11-24T00:33:50;100735.44;;;0.91;100.00
53619;BME280;39505;53.040;18.488;2022-11-24T00:34:05;100742.47;;;0.92;100.00
53619;BME280;39505;53.040;18.488;2022-11-24T00:34:18;100738.09;;;0.91;100.00
53619;BME280;39505;53.040;18.488;2022-11-24T00:34:31;100744.31;;;0.90;100.00
53619;BME280;39505;53.040;18.488;2022-11-24T00:34:45;100739.03;;;0.90;100.00
53619;BME280;39505;53.040;18.488;2022-11-24T00:34:58;100742.50;;;0.91;100.00
53619;BME280;39505;53.040;18.488;2022-11-24T00:35:11;100738.09;;;0.91;100.00
53619;BME280;39505;53.040;18.488;2022-11-24T00:35:24;100740.72;;;0.91;100.00
53619;BME280;39505;53.040;18.488;2022-11-24T00:35:38;100736.38;;;0.90;100.00
53619;BME280;39505;53.040;18.488;2022-11-24T00:35:53;100744.31;;;0.90;100.00
53619;BME280;39505;53.040;18.488;2022-11-24T00:36:07;100739.03;;;0.90;100.00
53619;BME280;39505;53.040;18.488;2022-11-24T00:36:21;100735.59;;;0.88;100.00
53619;BME280;39505;53.040;18.488;2022-11-24T00:36:35;100744.38;;;0.89;100.00
53619;BME280;39505;53.040;18.488;2022-11-24T00:36:49;100741.81;;;0.87;100.00
53619;BME280;39505;53.040;18.488;2022-11-24T00:37:02;100740.03;;;0.88;100.00
53619;BME280;39505;53.040;18.488;2022-11-24T00:37:15;100738.31;;;0.87;100.00
53619;BME280;39505;53.040;18.488;2022-11-24T00:37:27;100739.19;;;0.87;100.00
53619;BME280;39505;53.040;18.488;2022-11-24T00:37:40;100740.03;;;0.88;100.00
53619;BME280;39505;53.040;18.488;2022-11-24T00:37:54;100741.81;;;0.87;100.00
53619;BME280;39505;53.040;18.488;2022-11-24T00:38:07;100743.53;;;0.88;100.00
53619;BME280;39505;53.040;18.488;2022-11-24T00:38:21;100745.31;;;0.88;100.00
53619;BME280;39505;53.040;18.488;2022-11-24T00:38:34;100740.88;;;0.88;100.00
53619;BME280;39505;53.040;18.488;2022-11-24T00:38:47;100746.09;;;0.90;100.00
53619;BME280;39505;53.040;18.488;2022-11-24T00:39:01;100734.69;;;0.89;100.00
53619;BME280;39505;53.040;18.488;2022-11-24T00:39:15;100735.59;;;0.88;100.00
53619;BME280;39505;53.040;18.488;2022-11-24T00:39:28;100737.34;;;0.89;100.00
53619;BME280;39505;53.040;18.488;2022-11-24T00:39:41;100738.19;;;0.90;100.00
53619;BME280;39505;53.040;18.488;2022-11-24T00:39:55;100742.50;;;0.91;100.00
53619;BME280;39505;53.040;18.488;2022-11-24T00:40:08;100742.47;;;0.92;100.00
53619;BME280;39505;53.040;18.488;2022-11-24T00:40:21;100742.47;;;0.92;100.00
53619;BME280;39505;53.040;18.488;2022-11-24T00:40:34;100744.31;;;0.90;100.00
53619;BME280;39505;53.040;18.488;2022-11-24T00:40:48;100746.00;;;0.91;100.00
53619;BME280;39505;53.040;18.488;2022-11-24T00:41:01;100740.72;;;0.91;100.00
53619;BME280;39505;53.040;18.488;2022-11-24T00:41:14;100740.72;;;0.91;100.00
53619;BME280;39505;53.040;18.488;2022-11-24T00:41:27;100739.03;;;0.90;100.00
53619;BME280;39505;53.040;18.488;2022-11-24T00:41:42;100740.72;;;0.91;100.00
53619;BME280;39505;53.040;18.488;2022-11-24T00:41:55;100738.09;;;0.91;100.00
53619;BME280;39505;53.040;18.488;2022-11-24T00:42:08;100738.09;;;0.91;100.00
53619;BME280;39505;53.040;18.488;2022-11-24T00:42:20;100733.75;;;0.90;100.00
53619;BME280;39505;53.040;18.488;2022-11-24T00:42:33;100743.38;;;0.91;100.00
53619;BME280;39505;53.040;18.488;2022-11-24T00:42:46;100742.47;;;0.92;100.00
53619;BME280;39505;53.040;18.488;2022-11-24T00:42:59;100741.59;;;0.92;100.00
53619;BME280;39505;53.040;18.488;2022-11-24T00:43:12;100741.59;;;0.92;100.00
53619;BME280;39505;53.040;18.488;2022-11-24T00:43:24;100739.81;;;0.92;100.00
53619;BME280;39505;53.040;18.488;2022-11-24T00:43:38;100733.59;;;0.93;100.00
53619;BME280;39505;53.040;18.488;2022-11-24T00:43:52;100739.81;;;0.92;100.00
53619;BME280;39505;53.040;18.488;2022-11-24T00:44:05;100738.03;;;0.93;100.00
53619;BME280;39505;53.040;18.488;2022-11-24T00:44:18;100735.44;;;0.91;100.00
53619;BME280;39505;53.040;18.488;2022-11-24T00:44:30;100738.19;;;0.90;100.00
53619;BME280;39505;53.040;18.488;2022-11-24T00:44:43;100738.19;;;0.90;100.00
53619;BME280;39505;53.040;18.488;2022-11-24T00:44:57;100737.34;;;0.89;100.00
53619;BME280;39505;53.040;18.488;2022-11-24T00:45:10;100742.59;;;0.89;100.00
53619;BME280;39505;53.040;18.488;2022-11-24T00:45:25;100741.81;;;0.87;100.00
53619;BME280;39505;53.040;18.488;2022-11-24T00:45:38;100736.59;;;0.86;100.00
53619;BME280;39505;53.040;18.488;2022-11-24T00:45:51;100736.59;;;0.86;100.00
53619;BME280;39505;53.040;18.488;2022-11-24T00:46:04;100739.31;;;0.84;100.00
53619;BME280;39505;53.040;18.488;2022-11-24T00:46:18;100748.06;;;0.85;100.00
53619;BME280;39505;53.040;18.488;2022-11-24T00:46:32;100748.16;;;0.83;100.00
53619;BME280;39505;53.040;18.488;2022-11-24T00:46:46;100735.88;;;0.82;100.00
53619;BME280;39505;53.040;18.488;2022-11-24T00:46:59;100740.31;;;0.82;100.00
53619;BME280;39505;53.040;18.488;2022-11-24T00:47:12;100739.47;;;0.81;100.00
53619;BME280;39505;53.040;18.488;2022-11-24T00:47:25;100733.25;;;0.82;100.00
53619;BME280;39505;53.040;18.488;2022-11-24T00:47:40;100742.88;;;0.83;100.00
53619;BME280;39505;53.040;18.488;2022-11-24T00:47:52;100734.09;;;0.83;100.00
53619;BME280;39505;53.040;18.488;2022-11-24T00:48:06;100739.38;;;0.83;100.00
53619;BME280;39505;53.040;18.488;2022-11-24T00:48:19;100738.47;;;0.84;100.00
53619;BME280;39505;53.040;18.488;2022-11-24T00:48:32;100735.81;;;0.84;100.00
53619;BME280;39505;53.040;18.488;2022-11-24T00:48:45;100733.19;;;0.84;100.00
53619;BME280;39505;53.040;18.488;2022-11-24T00:48:58;100736.72;;;0.83;100.00
53619;BME280;39505;53.040;18.488;2022-11-24T00:49:11;100732.34;;;0.83;100.00
53619;BME280;39505;53.040;18.488;2022-11-24T00:49:25;100732.34;;;0.83;100.00
53619;BME280;39505;53.040;18.488;2022-11-24T00:49:38;100737.59;;;0.83;100.00
53619;BME280;39505;53.040;18.488;2022-11-24T00:49:51;100732.34;;;0.83;100.00
53619;BME280;39505;53.040;18.488;2022-11-24T00:50:04;100735.81;;;0.84;100.00
53619;BME280;39505;53.040;18.488;2022-11-24T00:50:17;100733.19;;;0.84;100.00
53619;BME280;39505;53.040;18.488;2022-11-24T00:50:31;100736.72;;;0.83;100.00
53619;BME280;39505;53.040;18.488;2022-11-24T00:50:44;100737.59;;;0.83;100.00
53619;BME280;39505;53.040;18.488;2022-11-24T00:50:58;100737.59;;;0.83;100.00
53619;BME280;39505;53.040;18.488;2022-11-24T00:51:14;100734.88;;;0.85;100.00
53619;BME280;39505;53.040;18.488;2022-11-24T00:51:27;100735.75;;;0.85;100.00
53619;BME280;39505;53.040;18.488;2022-11-24T00:51:41;100735.75;;;0.85;100.00
53619;BME280;39505;53.040;18.488;2022-11-24T00:51:54;100735.75;;;0.85;100.00
53619;BME280;39505;53.040;18.488;2022-11-24T00:52:07;100737.44;;;0.86;100.00
53619;BME280;39505;53.040;18.488;2022-11-24T00:52:21;100736.53;;;0.87;100.00
53619;BME280;39505;53.040;18.488;2022-11-24T00:52:33;100737.44;;;0.86;100.00
53619;BME280;39505;53.040;18.488;2022-11-24T00:52:46;100736.59;;;0.86;100.00
53619;BME280;39505;53.040;18.488;2022-11-24T00:52:59;100731.25;;;0.87;100.00
53619;BME280;39505;53.040;18.488;2022-11-24T00:53:12;100736.53;;;0.87;100.00
53619;BME280;39505;53.040;18.488;2022-11-24T00:53:25;100737.41;;;0.88;100.00
53619;BME280;39505;53.040;18.488;2022-11-24T00:53:38;100734.75;;;0.88;100.00
53619;BME280;39505;53.040;18.488;2022-11-24T00:53:51;100729.47;;;0.88;100.00
53619;BME280;39505;53.040;18.488;2022-11-24T00:54:05;100735.59;;;0.88;100.00
53619;BME280;39505;53.040;18.488;2022-11-24T00:54:18;100734.69;;;0.89;100.00
53619;BME280;39505;53.040;18.488;2022-11-24T00:54:31;100737.34;;;0.89;100.00
53619;BME280;39505;53.040;18.488;2022-11-24T00:54:44;100733.75;;;0.90;100.00
53619;BME280;39505;53.040;18.488;2022-11-24T00:54:57;100739.03;;;0.90;100.00
53619;BME280;39505;53.040;18.488;2022-11-24T00:55:09;100736.38;;;0.90;100.00
53619;BME280;39505;53.040;18.488;2022-11-24T00:55:22;100739.03;;;0.90;100.00
53619;BME280;39505;53.040;18.488;2022-11-24T00:55:36;100734.69;;;0.89;100.00
53619;BME280;39505;53.040;18.488;2022-11-24T00:55:51;100737.34;;;0.89;100.00
53619;BME280;39505;53.040;18.488;2022-11-24T00:56:04;100733.75;;;0.90;100.00
53619;BME280;39505;53.040;18.488;2022-11-24T00:56:17;100735.44;;;0.91;100.00
53619;BME280;39505;53.040;18.488;2022-11-24T00:56:30;100739.03;;;0.90;100.00
53619;BME280;39505;53.040;18.488;2022-11-24T00:56:43;100732.81;;;0.91;100.00
53619;BME280;39505;53.040;18.488;2022-11-24T00:56:57;100732.81;;;0.91;100.00
53619;BME280;39505;53.040;18.488;2022-11-24T00:57:10;100738.88;;;0.93;100.00
53619;BME280;39505;53.040;18.488;2022-11-24T00:57:23;100738.03;;;0.93;100.00
53619;BME280;39505;53.040;18.488;2022-11-24T00:57:36;100740.66;;;0.93;100.00
53619;BME280;39505;53.040;18.488;2022-11-24T00:57:49;100732.69;;;0.94;100.00
53619;BME280;39505;53.040;18.488;2022-11-24T00:58:01;100741.44;;;0.95;100.00
53619;BME280;39505;53.040;18.488;2022-11-24T00:58:14;100740.59;;;0.94;100.00
53619;BME280;39505;53.040;18.488;2022-11-24T00:58:27;100732.69;;;0.94;100.00
53619;BME280;39505;53.040;18.488;2022-11-24T00:58:41;100731.75;;;0.95;100.00
53619;BME280;39505;53.040;18.488;2022-11-24T00:58:55;100737.03;;;0.95;100.00
53619;BME280;39505;53.040;18.488;2022-11-24T00:59:08;100738.75;;;0.96;100.00
53619;BME280;39505;53.040;18.488;2022-11-24T00:59:21;100731.69;;;0.97;100.00
53619;BME280;39505;53.040;18.488;2022-11-24T00:59:33;100729.88;;;0.97;100.00
53619;BME280;39505;53.040;18.488;2022-11-24T00:59:47;100734.25;;;0.98;100.00
53619;BME280;39505;53.040;18.488;2022-11-24T01:00:00;100737.75;;;0.99;100.00
53619;BME280;39505;53.040;18.488;2022-11-24T01:00:14;100735.09;;;0.99;100.00
53619;BME280;39505;53.040;18.488;2022-11-24T01:00:26;100735.03;;;1.01;100.00
53619;BME280;39505;53.040;18.488;2022-11-24T01:00:39;100736.75;;;1.02;100.00
53619;BME280;39505;53.040;18.488;2022-11-24T01:00:52;100739.31;;;1.03;100.00
53619;BME280;39505;53.040;18.488;2022-11-24T01:01:07;100736.69;;;1.03;100.00
53619;BME280;39505;53.040;18.488;2022-11-24T01:01:23;100737.53;;;1.04;100.00
53619;BME280;39505;53.040;18.488;2022-11-24T01:01:36;100740.16;;;1.04;100.00
53619;BME280;39505;53.040;18.488;2022-11-24T01:01:50;100732.25;;;1.04;100.00
53619;BME280;39505;53.040;18.488;2022-11-24T01:02:03;100741.88;;;1.05;100.00
53619;BME280;39505;53.040;18.488;2022-11-24T01:02:16;100745.38;;;1.05;100.00
53619;BME280;39505;53.040;18.488;2022-11-24T01:02:29;100749.81;;;1.05;100.00
53619;BME280;39505;53.040;18.488;2022-11-24T01:02:42;100747.16;;;1.05;100.00
53619;BME280;39505;53.040;18.488;2022-11-24T01:02:54;100744.53;;;1.05;100.00
53619;BME280;39505;53.040;18.488;2022-11-24T01:03:09;100746.22;;;1.06;100.00
53619;BME280;39505;53.040;18.488;2022-11-24T01:03:21;100746.22;;;1.06;100.00
53619;BME280;39505;53.040;18.488;2022-11-24T01:03:34;100743.59;;;1.06;100.00
53619;BME280;39505;53.040;18.488;2022-11-24T01:03:47;100745.31;;;1.07;100.00
53619;BME280;39505;53.040;18.488;2022-11-24T01:04:00;100746.16;;;1.07;100.00
53619;BME280;39505;53.040;18.488;2022-11-24T01:04:13;100742.69;;;1.07;100.00
53619;BME280;39505;53.040;18.488;2022-11-24T01:04:27;100742.69;;;1.07;100.00
53619;BME280;39505;53.040;18.488;2022-11-24T01:04:40;100743.53;;;1.07;100.00
53619;BME280;39505;53.040;18.488;2022-11-24T01:04:53;100749.66;;;1.08;100.00
53619;BME280;39505;53.040;18.488;2022-11-24T01:05:06;100746.94;;;1.09;100.00
53619;BME280;39505;53.040;18.488;2022-11-24T01:05:19;100745.16;;;1.10;100.00
53619;BME280;39505;53.040;18.488;2022-11-24T01:05:34;100749.59;;;1.09;100.00
53619;BME280;39505;53.040;18.488;2022-11-24T01:05:48;100747.81;;;1.10;100.00
53619;BME280;39505;53.040;18.488;2022-11-24T01:06:03;100753.03;;;1.11;100.00
53619;BME280;39505;53.040;18.488;2022-11-24T01:06:17;100746.84;;;1.11;100.00
53619;BME280;39505;53.040;18.488;2022-11-24T01:06:31;100751.22;;;1.12;100.00
53619;BME280;39505;53.040;18.488;2022-11-24T01:06:44;100746.84;;;1.11;100.00
53619;BME280;39505;53.040;18.488;2022-11-24T01:06:57;100748.59;;;1.12;100.00
53619;BME280;39505;53.040;18.488;2022-11-24T01:07:11;100751.22;;;1.12;100.00
53619;BME280;39505;53.040;18.488;2022-11-24T01:07:23;100748.59;;;1.12;100.00
53619;BME280;39505;53.040;18.488;2022-11-24T01:07:36;100745.00;;;1.13;100.00
53619;BME280;39505;53.040;18.488;2022-11-24T01:07:49;100746.78;;;1.12;100.00
53619;BME280;39505;53.040;18.488;2022-11-24T01:08:02;100742.38;;;1.13;100.00
53619;BME280;39505;53.040;18.488;2022-11-24T01:08:15;100747.66;;;1.13;100.00
53619;BME280;39505;53.040;18.488;2022-11-24T01:08:28;100749.44;;;1.12;100.00
53619;BME280;39505;53.040;18.488;2022-11-24T01:08:41;100755.56;;;1.13;100.00
53619;BME280;39505;53.040;18.488;2022-11-24T01:08:56;100745.88;;;1.13;100.00
53619;BME280;39505;53.040;18.488;2022-11-24T01:09:09;100752.00;;;1.14;100.00
53619;BME280;39505;53.040;18.488;2022-11-24T01:09:22;100747.59;;;1.14;100.00
53619;BME280;39505;53.040;18.488;2022-11-24T01:09:35;100746.72;;;1.14;100.00
53619;BME280;39505;53.040;18.488;2022-11-24T01:09:49;100747.59;;;1.14;100.00